sensor_id;sensor_type;location;lat;lon;timestamp;temperature;humidity
49132;DHT22;35149;51.196;6.204;2023-09-19T00:00:56;19.80;59.20
49132;DHT22;35149;51.196;6.204;2023-09-19T00:03:26;19.80;59.30
49132;DHT22;35149;51.196;6.204;2023-09-19T00:05:58;19.80;59.30
49132;DHT22;35149;51.196;6.204;2023-09-19T00:08:24;19.70;59.60
49132;DHT22;35149;51.196;6.204;2023-09-19T00:10:51;19.70;59.60
49132;DHT22;35149;51.196;6.204;2023-09-19T00:13:23;19.70;59.70
49132;DHT22;35149;51.196;6.204;2023-09-19T00:15:51;19.70;59.90
49132;DHT22;35149;51.196;6.204;2023-09-19T00:18:19;19.70;59.80
49132;DHT22;35149;51.196;6.204;2023-09-19T00:20:51;19.60;59.80
49132;DHT22;35149;51.196;6.204;2023-09-19T00:23:20;19.60;59.80
49132;DHT22;35149;51.196;6.204;2023-09-19T00:25:48;19.60;59.90
49132;DHT22;35149;51.196;6.204;2023-09-19T00:28:21;19.60;60.00
49132;DHT22;35149;51.196;6.204;2023-09-19T00:30:47;19.50;60.30
49132;DHT22;35149;51.196;6.204;2023-09-19T00:33:17;19.50;60.10
49132;DHT22;35149;51.196;6.204;2023-09-19T00:35:52;19.50;60.10
49132;DHT22;35149;51.196;6.204;2023-09-19T00:38:20;19.50;60.30
49132;DHT22;35149;51.196;6.204;2023-09-19T00:40:54;19.40;60.20
49132;DHT22;35149;51.196;6.204;2023-09-19T00:43:29;19.40;60.30
49132;DHT22;35149;51.196;6.204;2023-09-19T00:45:56;19.40;60.30
49132;DHT22;35149;51.196;6.204;2023-09-19T00:48:27;19.40;60.40
49132;DHT22;35149;51.196;6.204;2023-09-19T00:51:02;19.30;60.40
49132;DHT22;35149;51.196;6.204;2023-09-19T00:53:34;19.30;60.70
49132;DHT22;35149;51.196;6.204;2023-09-19T00:56:03;19.30;60.70
49132;DHT22;35149;51.196;6.204;2023-09-19T00:58:35;19.20;60.80
49132;DHT22;35149;51.196;6.204;2023-09-19T01:01:04;19.20;60.80
49132;DHT22;35149;51.196;6.204;2023-09-19T01:03:36;19.20;60.90
49132;DHT22;35149;51.196;6.204;2023-09-19T01:06:03;19.20;60.90
49132;DHT22;35149;51.196;6.204;2023-09-19T01:08:32;19.10;61.00
49132;DHT22;35149;51.196;6.204;2023-09-19T01:11:17;19.10;61.10
49132;DHT22;35149;51.196;6.204;2023-09-19T01:17:19;19.10;61.40
49132;DHT22;35149;51.196;6.204;2023-09-19T01:22:19;19.10;61.60
49132;DHT22;35149;51.196;6.204;2023-09-19T01:25:20;19.10;61.70
49132;DHT22;35149;51.196;6.204;2023-09-19T01:28:12;19.10;61.90
49132;DHT22;35149;51.196;6.204;2023-09-19T01:30:47;19.00;61.90
49132;DHT22;35149;51.196;6.204;2023-09-19T01:33:17;19.00;61.50
49132;DHT22;35149;51.196;6.204;2023-09-19T01:35:51;19.00;61.60
49132;DHT22;35149;51.196;6.204;2023-09-19T01:38:20;19.00;61.70
49132;DHT22;35149;51.196;6.204;2023-09-19T01:40:57;19.00;61.80
49132;DHT22;35149;51.196;6.204;2023-09-19T01:43:37;18.90;62.00
49132;DHT22;35149;51.196;6.204;2023-09-19T01:46:18;19.00;62.10
49132;DHT22;35149;51.196;6.204;2023-09-19T01:49:28;18.90;62.20
49132;DHT22;35149;51.196;6.204;2023-09-19T01:52:13;18.90;62.20
49132;DHT22;35149;51.196;6.204;2023-09-19T01:54:52;18.90;61.70
49132;DHT22;35149;51.196;6.204;2023-09-19T02:00:32;18.90;61.80
49132;DHT22;35149;51.196;6.204;2023-09-19T02:03:05;18.80;61.40
49132;DHT22;35149;51.196;6.204;2023-09-19T02:05:33;18.80;61.40
49132;DHT22;35149;51.196;6.204;2023-09-19T02:08:05;18.80;61.50
49132;DHT22;35149;51.196;6.204;2023-09-19T02:10:34;18.80;61.50
49132;DHT22;35149;51.196;6.204;2023-09-19T02:13:06;18.70;61.40
49132;DHT22;35149;51.196;6.204;2023-09-19T02:15:35;18.70;61.40
49132;DHT22;35149;51.196;6.204;2023-09-19T02:18:04;18.70;61.40
49132;DHT22;35149;51.196;6.204;2023-09-19T02:20:32;18.70;61.40
49132;DHT22;35149;51.196;6.204;2023-09-19T02:22:59;18.70;61.60
49132;DHT22;35149;51.196;6.204;2023-09-19T02:25:36;18.70;61.70
49132;DHT22;35149;51.196;6.204;2023-09-19T02:28:08;18.70;61.60
49132;DHT22;35149;51.196;6.204;2023-09-19T02:30:38;18.60;61.60
49132;DHT22;35149;51.196;6.204;2023-09-19T02:33:05;18.70;61.70
49132;DHT22;35149;51.196;6.204;2023-09-19T02:35:34;18.60;61.70
49132;DHT22;35149;51.196;6.204;2023-09-19T02:38:03;18.60;61.80
49132;DHT22;35149;51.196;6.204;2023-09-19T02:40:33;18.60;61.70
49132;DHT22;35149;51.196;6.204;2023-09-19T02:43:03;18.60;61.70
49132;DHT22;35149;51.196;6.204;2023-09-19T02:45:31;18.60;61.70
49132;DHT22;35149;51.196;6.204;2023-09-19T02:48:07;18.60;61.70
49132;DHT22;35149;51.196;6.204;2023-09-19T02:50:36;18.60;61.80
49132;DHT22;35149;51.196;6.204;2023-09-19T02:53:03;18.60;61.80
49132;DHT22;35149;51.196;6.204;2023-09-19T02:55:31;18.60;61.80
49132;DHT22;35149;51.196;6.204;2023-09-19T02:57:58;18.50;61.80
49132;DHT22;35149;51.196;6.204;2023-09-19T03:00:29;18.50;61.80
49132;DHT22;35149;51.196;6.204;2023-09-19T03:03:03;18.50;61.90
49132;DHT22;35149;51.196;6.204;2023-09-19T03:05:35;18.50;61.90
49132;DHT22;35149;51.196;6.204;2023-09-19T03:08:07;18.60;61.70
49132;DHT22;35149;51.196;6.204;2023-09-19T03:10:42;18.50;61.60
49132;DHT22;35149;51.196;6.204;2023-09-19T03:13:08;18.50;61.60
49132;DHT22;35149;51.196;6.204;2023-09-19T03:15:41;18.50;61.80
49132;DHT22;35149;51.196;6.204;2023-09-19T03:18:13;18.50;62.10
49132;DHT22;35149;51.196;6.204;2023-09-19T03:20:40;18.40;62.00
49132;DHT22;35149;51.196;6.204;2023-09-19T03:23:11;18.40;62.00
49132;DHT22;35149;51.196;6.204;2023-09-19T03:25:40;18.40;62.10
49132;DHT22;35149;51.196;6.204;2023-09-19T03:28:09;18.40;62.20
49132;DHT22;35149;51.196;6.204;2023-09-19T03:30:36;18.40;62.20
49132;DHT22;35149;51.196;6.204;2023-09-19T03:33:05;18.40;62.20
49132;DHT22;35149;51.196;6.204;2023-09-19T03:35:36;18.40;62.20
49132;DHT22;35149;51.196;6.204;2023-09-19T03:38:06;18.40;62.20
49132;DHT22;35149;51.196;6.204;2023-09-19T03:40:35;18.40;62.20
49132;DHT22;35149;51.196;6.204;2023-09-19T03:43:04;18.40;62.10
49132;DHT22;35149;51.196;6.204;2023-09-19T03:45:33;18.40;62.20
49132;DHT22;35149;51.196;6.204;2023-09-19T03:48:10;18.30;62.10
49132;DHT22;35149;51.196;6.204;2023-09-19T03:50:44;18.40;62.60
49132;DHT22;35149;51.196;6.204;2023-09-19T03:53:13;18.40;62.20
49132;DHT22;35149;51.196;6.204;2023-09-19T03:55:40;18.40;62.30
49132;DHT22;35149;51.196;6.204;2023-09-19T03:58:12;18.40;62.30
49132;DHT22;35149;51.196;6.204;2023-09-19T04:00:42;18.40;62.50
49132;DHT22;35149;51.196;6.204;2023-09-19T04:03:11;18.40;62.40
49132;DHT22;35149;51.196;6.204;2023-09-19T04:05:47;18.40;62.40
49132;DHT22;35149;51.196;6.204;2023-09-19T04:08:16;18.30;62.40
49132;DHT22;35149;51.196;6.204;2023-09-19T04:10:43;18.30;62.30
49132;DHT22;35149;51.196;6.204;2023-09-19T04:13:10;18.30;62.40
49132;DHT22;35149;51.196;6.204;2023-09-19T04:15:38;18.40;62.50
49132;DHT22;35149;51.196;6.204;2023-09-19T04:18:09;18.40;62.70
49132;DHT22;35149;51.196;6.204;2023-09-19T04:20:37;18.40;62.60
49132;DHT22;35149;51.196;6.204;2023-09-19T04:23:07;18.30;62.70
49132;DHT22;35149;51.196;6.204;2023-09-19T04:25:40;18.30;62.80
49132;DHT22;35149;51.196;6.204;2023-09-19T04:28:07;18.40;62.90
49132;DHT22;35149;51.196;6.204;2023-09-19T04:30:34;18.30;62.80
49132;DHT22;35149;51.196;6.204;2023-09-19T04:33:03;18.30;62.70
49132;DHT22;35149;51.196;6.204;2023-09-19T04:35:34;18.40;62.60
49132;DHT22;35149;51.196;6.204;2023-09-19T04:38:04;18.40;62.70
49132;DHT22;35149;51.196;6.204;2023-09-19T04:40:32;18.40;62.40
49132;DHT22;35149;51.196;6.204;2023-09-19T04:43:04;18.40;62.20
49132;DHT22;35149;51.196;6.204;2023-09-19T04:45:30;18.40;62.20
49132;DHT22;35149;51.196;6.204;2023-09-19T04:47:57;18.40;62.00
49132;DHT22;35149;51.196;6.204;2023-09-19T04:50:25;18.40;62.00
49132;DHT22;35149;51.196;6.204;2023-09-19T04:52:57;18.40;61.90
49132;DHT22;35149;51.196;6.204;2023-09-19T04:55:24;18.40;61.70
49132;DHT22;35149;51.196;6.204;2023-09-19T04:57:51;18.40;61.80
49132;DHT22;35149;51.196;6.204;2023-09-19T05:00:20;18.40;61.70
49132;DHT22;35149;51.196;6.204;2023-09-19T05:02:55;18.40;62.20
49132;DHT22;35149;51.196;6.204;2023-09-19T05:05:24;18.40;61.60
49132;DHT22;35149;51.196;6.204;2023-09-19T05:07:54;18.30;61.40
49132;DHT22;35149;51.196;6.204;2023-09-19T05:10:22;18.30;61.30
49132;DHT22;35149;51.196;6.204;2023-09-19T05:12:54;18.40;61.50
49132;DHT22;35149;51.196;6.204;2023-09-19T05:15:25;18.30;61.40
49132;DHT22;35149;51.196;6.204;2023-09-19T05:17:52;18.40;61.40
49132;DHT22;35149;51.196;6.204;2023-09-19T05:20:24;18.40;61.20
49132;DHT22;35149;51.196;6.204;2023-09-19T05:23:07;18.50;61.20
49132;DHT22;35149;51.196;6.204;2023-09-19T05:25:41;18.50;61.20
49132;DHT22;35149;51.196;6.204;2023-09-19T05:28:16;18.50;61.10
49132;DHT22;35149;51.196;6.204;2023-09-19T05:30:43;18.50;61.20
49132;DHT22;35149;51.196;6.204;2023-09-19T05:33:14;18.50;61.20
49132;DHT22;35149;51.196;6.204;2023-09-19T05:35:42;18.50;61.00
49132;DHT22;35149;51.196;6.204;2023-09-19T05:38:11;18.50;61.00
49132;DHT22;35149;51.196;6.204;2023-09-19T05:40:41;18.60;61.10
49132;DHT22;35149;51.196;6.204;2023-09-19T05:43:10;18.60;61.10
49132;DHT22;35149;51.196;6.204;2023-09-19T05:45:42;18.60;61.20
49132;DHT22;35149;51.196;6.204;2023-09-19T05:48:10;18.60;61.10
49132;DHT22;35149;51.196;6.204;2023-09-19T05:50:39;18.60;61.10
49132;DHT22;35149;51.196;6.204;2023-09-19T05:53:06;18.60;61.10
49132;DHT22;35149;51.196;6.204;2023-09-19T05:55:36;18.60;61.10
49132;DHT22;35149;51.196;6.204;2023-09-19T05:58:05;18.70;61.30
49132;DHT22;35149;51.196;6.204;2023-09-19T06:00:31;18.70;61.20
49132;DHT22;35149;51.196;6.204;2023-09-19T06:02:59;18.70;61.30
49132;DHT22;35149;51.196;6.204;2023-09-19T06:05:27;18.70;61.30
49132;DHT22;35149;51.196;6.204;2023-09-19T06:07:54;18.70;61.30
49132;DHT22;35149;51.196;6.204;2023-09-19T06:10:24;18.70;61.40
49132;DHT22;35149;51.196;6.204;2023-09-19T06:12:51;18.70;61.60
49132;DHT22;35149;51.196;6.204;2023-09-19T06:15:21;18.70;61.50
49132;DHT22;35149;51.196;6.204;2023-09-19T06:17:54;18.70;61.50
49132;DHT22;35149;51.196;6.204;2023-09-19T06:20:23;18.70;61.50
49132;DHT22;35149;51.196;6.204;2023-09-19T06:22:53;18.70;61.60
49132;DHT22;35149;51.196;6.204;2023-09-19T06:25:20;18.70;61.70
49132;DHT22;35149;51.196;6.204;2023-09-19T06:27:52;18.70;61.70
49132;DHT22;35149;51.196;6.204;2023-09-19T06:30:21;18.70;61.80
49132;DHT22;35149;51.196;6.204;2023-09-19T06:32:48;18.60;61.80
49132;DHT22;35149;51.196;6.204;2023-09-19T06:35:15;18.70;61.80
49132;DHT22;35149;51.196;6.204;2023-09-19T06:37:43;18.70;61.80
49132;DHT22;35149;51.196;6.204;2023-09-19T06:40:12;18.70;61.80
49132;DHT22;35149;51.196;6.204;2023-09-19T06:42:47;18.70;61.80
49132;DHT22;35149;51.196;6.204;2023-09-19T06:45:18;18.70;61.90
49132;DHT22;35149;51.196;6.204;2023-09-19T06:47:46;18.70;61.80
49132;DHT22;35149;51.196;6.204;2023-09-19T06:50:17;18.70;61.70
49132;DHT22;35149;51.196;6.204;2023-09-19T06:52:51;18.70;61.80
49132;DHT22;35149;51.196;6.204;2023-09-19T06:55:19;18.70;61.90
49132;DHT22;35149;51.196;6.204;2023-09-19T06:57:47;18.70;61.90
49132;DHT22;35149;51.196;6.204;2023-09-19T07:00:15;18.70;61.80
49132;DHT22;35149;51.196;6.204;2023-09-19T07:03:07;18.80;61.90
49132;DHT22;35149;51.196;6.204;2023-09-19T07:05:40;18.80;62.10
49132;DHT22;35149;51.196;6.204;2023-09-19T07:08:10;18.80;61.80
49132;DHT22;35149;51.196;6.204;2023-09-19T07:10:41;18.80;61.80
49132;DHT22;35149;51.196;6.204;2023-09-19T07:13:09;18.80;62.00
49132;DHT22;35149;51.196;6.204;2023-09-19T07:15:40;18.80;61.90
49132;DHT22;35149;51.196;6.204;2023-09-19T07:18:14;18.90;62.00
49132;DHT22;35149;51.196;6.204;2023-09-19T07:20:45;18.90;61.80
49132;DHT22;35149;51.196;6.204;2023-09-19T07:23:21;18.90;61.80
49132;DHT22;35149;51.196;6.204;2023-09-19T07:25:51;18.90;62.00
49132;DHT22;35149;51.196;6.204;2023-09-19T07:28:20;19.00;61.70
49132;DHT22;35149;51.196;6.204;2023-09-19T07:30:51;19.00;61.70
49132;DHT22;35149;51.196;6.204;2023-09-19T07:33:19;19.00;61.60
49132;DHT22;35149;51.196;6.204;2023-09-19T07:35:48;19.00;61.40
49132;DHT22;35149;51.196;6.204;2023-09-19T07:38:15;19.00;61.40
49132;DHT22;35149;51.196;6.204;2023-09-19T07:40:44;19.10;61.30
49132;DHT22;35149;51.196;6.204;2023-09-19T07:43:10;19.10;61.50
49132;DHT22;35149;51.196;6.204;2023-09-19T07:45:40;19.10;61.40
49132;DHT22;35149;51.196;6.204;2023-09-19T07:48:07;19.10;61.60
49132;DHT22;35149;51.196;6.204;2023-09-19T07:50:44;19.20;61.40
49132;DHT22;35149;51.196;6.204;2023-09-19T07:53:11;19.20;61.20
49132;DHT22;35149;51.196;6.204;2023-09-19T07:55:40;19.30;61.20
49132;DHT22;35149;51.196;6.204;2023-09-19T07:58:10;19.30;61.20
49132;DHT22;35149;51.196;6.204;2023-09-19T08:00:36;19.30;61.20
49132;DHT22;35149;51.196;6.204;2023-09-19T08:03:03;19.40;61.20
49132;DHT22;35149;51.196;6.204;2023-09-19T08:05:44;19.40;61.40
49132;DHT22;35149;51.196;6.204;2023-09-19T08:08:11;19.40;61.10
49132;DHT22;35149;51.196;6.204;2023-09-19T08:10:41;19.50;61.00
49132;DHT22;35149;51.196;6.204;2023-09-19T08:13:13;19.50;61.10
49132;DHT22;35149;51.196;6.204;2023-09-19T08:15:44;19.60;60.90
49132;DHT22;35149;51.196;6.204;2023-09-19T08:18:17;19.60;60.50
49132;DHT22;35149;51.196;6.204;2023-09-19T08:20:50;19.70;60.30
49132;DHT22;35149;51.196;6.204;2023-09-19T08:23:20;19.70;60.20
49132;DHT22;35149;51.196;6.204;2023-09-19T08:25:47;19.70;60.30
49132;DHT22;35149;51.196;6.204;2023-09-19T08:28:16;19.70;60.20
49132;DHT22;35149;51.196;6.204;2023-09-19T08:30:54;19.80;60.30
49132;DHT22;35149;51.196;6.204;2023-09-19T08:33:21;19.80;60.20
49132;DHT22;35149;51.196;6.204;2023-09-19T08:35:51;19.80;60.00
49132;DHT22;35149;51.196;6.204;2023-09-19T08:38:18;19.80;60.00
49132;DHT22;35149;51.196;6.204;2023-09-19T08:40:48;19.90;60.00
49132;DHT22;35149;51.196;6.204;2023-09-19T08:43:21;19.90;59.80
49132;DHT22;35149;51.196;6.204;2023-09-19T08:45:53;19.90;59.80
49132;DHT22;35149;51.196;6.204;2023-09-19T08:48:27;20.00;59.90
49132;DHT22;35149;51.196;6.204;2023-09-19T08:50:58;20.00;60.10
49132;DHT22;35149;51.196;6.204;2023-09-19T08:53:34;20.10;60.20
49132;DHT22;35149;51.196;6.204;2023-09-19T08:56:08;20.10;59.70
49132;DHT22;35149;51.196;6.204;2023-09-19T08:58:43;20.10;59.70
49132;DHT22;35149;51.196;6.204;2023-09-19T09:01:16;20.20;59.50
49132;DHT22;35149;51.196;6.204;2023-09-19T09:03:43;20.20;59.80
49132;DHT22;35149;51.196;6.204;2023-09-19T09:06:22;20.30;59.80
49132;DHT22;35149;51.196;6.204;2023-09-19T09:08:53;20.30;59.90
49132;DHT22;35149;51.196;6.204;2023-09-19T09:11:21;20.40;59.40
49132;DHT22;35149;51.196;6.204;2023-09-19T09:13:54;20.40;59.50
49132;DHT22;35149;51.196;6.204;2023-09-19T09:16:30;20.50;59.50
49132;DHT22;35149;51.196;6.204;2023-09-19T09:19:06;20.50;58.90
49132;DHT22;35149;51.196;6.204;2023-09-19T09:21:37;20.50;59.20
49132;DHT22;35149;51.196;6.204;2023-09-19T09:24:29;20.50;58.70
49132;DHT22;35149;51.196;6.204;2023-09-19T09:26:57;20.60;58.10
49132;DHT22;35149;51.196;6.204;2023-09-19T09:29:47;20.60;58.10
49132;DHT22;35149;51.196;6.204;2023-09-19T09:32:28;20.60;58.10
49132;DHT22;35149;51.196;6.204;2023-09-19T09:35:08;20.60;57.80
49132;DHT22;35149;51.196;6.204;2023-09-19T09:37:37;20.60;57.80
49132;DHT22;35149;51.196;6.204;2023-09-19T09:40:09;20.60;57.70
49132;DHT22;35149;51.196;6.204;2023-09-19T09:42:48;20.60;57.80
49132;DHT22;35149;51.196;6.204;2023-09-19T09:45:23;20.60;57.70
49132;DHT22;35149;51.196;6.204;2023-09-19T09:48:07;20.60;57.70
49132;DHT22;35149;51.196;6.204;2023-09-19T09:50:48;20.70;57.90
49132;DHT22;35149;51.196;6.204;2023-09-19T09:53:26;20.70;57.60
49132;DHT22;35149;51.196;6.204;2023-09-19T09:58:30;20.80;57.20
49132;DHT22;35149;51.196;6.204;2023-09-19T10:00:59;20.90;57.20
49132;DHT22;35149;51.196;6.204;2023-09-19T10:03:36;20.90;56.90
49132;DHT22;35149;51.196;6.204;2023-09-19T10:06:14;20.90;56.50
49132;DHT22;35149;51.196;6.204;2023-09-19T10:09:07;20.90;56.90
49132;DHT22;35149;51.196;6.204;2023-09-19T10:11:44;21.00;56.90
49132;DHT22;35149;51.196;6.204;2023-09-19T10:14:12;20.90;57.00
49132;DHT22;35149;51.196;6.204;2023-09-19T10:16:46;21.00;57.00
49132;DHT22;35149;51.196;6.204;2023-09-19T10:19:24;21.10;57.30
49132;DHT22;35149;51.196;6.204;2023-09-19T10:21:58;21.10;56.20
49132;DHT22;35149;51.196;6.204;2023-09-19T10:24:29;21.10;56.40
49132;DHT22;35149;51.196;6.204;2023-09-19T10:26:57;21.20;56.20
49132;DHT22;35149;51.196;6.204;2023-09-19T10:29:28;21.20;56.30
49132;DHT22;35149;51.196;6.204;2023-09-19T10:31:59;21.30;55.60
49132;DHT22;35149;51.196;6.204;2023-09-19T10:34:29;21.30;55.80
49132;DHT22;35149;51.196;6.204;2023-09-19T10:36:57;21.30;55.60
49132;DHT22;35149;51.196;6.204;2023-09-19T10:39:24;21.40;55.50
49132;DHT22;35149;51.196;6.204;2023-09-19T10:41:53;21.40;55.20
49132;DHT22;35149;51.196;6.204;2023-09-19T10:44:26;21.40;55.00
49132;DHT22;35149;51.196;6.204;2023-09-19T10:46:53;21.40;54.70
49132;DHT22;35149;51.196;6.204;2023-09-19T10:49:23;21.40;55.00
49132;DHT22;35149;51.196;6.204;2023-09-19T10:51:56;21.50;54.30
49132;DHT22;35149;51.196;6.204;2023-09-19T10:54:30;21.50;54.00
49132;DHT22;35149;51.196;6.204;2023-09-19T10:57:01;21.50;54.40
49132;DHT22;35149;51.196;6.204;2023-09-19T10:59:34;21.50;54.20
49132;DHT22;35149;51.196;6.204;2023-09-19T11:02:30;21.50;54.20
49132;DHT22;35149;51.196;6.204;2023-09-19T11:05:11;21.60;53.70
49132;DHT22;35149;51.196;6.204;2023-09-19T11:07:59;21.60;54.20
49132;DHT22;35149;51.196;6.204;2023-09-19T11:10:47;21.60;54.50
49132;DHT22;35149;51.196;6.204;2023-09-19T11:13:28;21.70;53.20
49132;DHT22;35149;51.196;6.204;2023-09-19T11:26:44;21.90;52.30
49132;DHT22;35149;51.196;6.204;2023-09-19T11:29:26;21.90;52.70
49132;DHT22;35149;51.196;6.204;2023-09-19T11:31:53;22.00;52.50
49132;DHT22;35149;51.196;6.204;2023-09-19T11:34:37;22.10;52.70
49132;DHT22;35149;51.196;6.204;2023-09-19T11:37:59;22.10;53.20
49132;DHT22;35149;51.196;6.204;2023-09-19T11:42:51;22.30;52.10
49132;DHT22;35149;51.196;6.204;2023-09-19T11:48:20;22.50;51.70
49132;DHT22;35149;51.196;6.204;2023-09-19T11:50:48;22.50;51.40
49132;DHT22;35149;51.196;6.204;2023-09-19T11:53:18;22.50;51.10
49132;DHT22;35149;51.196;6.204;2023-09-19T11:55:46;22.50;51.10
49132;DHT22;35149;51.196;6.204;2023-09-19T11:58:16;22.60;51.20
49132;DHT22;35149;51.196;6.204;2023-09-19T12:00:45;22.60;51.00
49132;DHT22;35149;51.196;6.204;2023-09-19T12:03:12;22.70;51.00
49132;DHT22;35149;51.196;6.204;2023-09-19T12:05:41;22.70;51.20
49132;DHT22;35149;51.196;6.204;2023-09-19T12:08:17;22.80;51.30
49132;DHT22;35149;51.196;6.204;2023-09-19T12:10:50;22.80;51.50
49132;DHT22;35149;51.196;6.204;2023-09-19T12:13:24;22.90;50.60
49132;DHT22;35149;51.196;6.204;2023-09-19T12:15:53;23.00;50.30
49132;DHT22;35149;51.196;6.204;2023-09-19T12:18:29;23.00;50.10
49132;DHT22;35149;51.196;6.204;2023-09-19T12:21:14;23.00;50.30
49132;DHT22;35149;51.196;6.204;2023-09-19T12:23:43;23.10;49.90
49132;DHT22;35149;51.196;6.204;2023-09-19T12:26:15;23.10;49.60
49132;DHT22;35149;51.196;6.204;2023-09-19T12:28:42;23.20;50.50
49132;DHT22;35149;51.196;6.204;2023-09-19T12:31:20;23.20;49.70
49132;DHT22;35149;51.196;6.204;2023-09-19T12:33:53;23.30;49.20
49132;DHT22;35149;51.196;6.204;2023-09-19T12:36:23;23.40;49.10
49132;DHT22;35149;51.196;6.204;2023-09-19T12:39:03;23.50;49.40
49132;DHT22;35149;51.196;6.204;2023-09-19T12:41:38;23.70;49.30
49132;DHT22;35149;51.196;6.204;2023-09-19T12:44:07;23.80;48.90
49132;DHT22;35149;51.196;6.204;2023-09-19T12:46:38;23.90;49.10
49132;DHT22;35149;51.196;6.204;2023-09-19T12:49:18;24.00;48.20
49132;DHT22;35149;51.196;6.204;2023-09-19T12:51:49;24.10;48.10
49132;DHT22;35149;51.196;6.204;2023-09-19T12:54:16;24.20;48.30
49132;DHT22;35149;51.196;6.204;2023-09-19T12:56:46;24.20;48.40
49132;DHT22;35149;51.196;6.204;2023-09-19T12:59:15;24.20;48.30
49132;DHT22;35149;51.196;6.204;2023-09-19T13:02:04;24.30;47.80
49132;DHT22;35149;51.196;6.204;2023-09-19T13:04:34;24.30;47.80
49132;DHT22;35149;51.196;6.204;2023-09-19T13:07:09;24.40;47.80
49132;DHT22;35149;51.196;6.204;2023-09-19T13:10:06;24.50;47.90
49132;DHT22;35149;51.196;6.204;2023-09-19T13:12:37;24.50;47.10
49132;DHT22;35149;51.196;6.204;2023-09-19T13:15:12;24.50;47.30
49132;DHT22;35149;51.196;6.204;2023-09-19T13:17:57;24.50;47.30
49132;DHT22;35149;51.196;6.204;2023-09-19T13:20:30;24.50;48.30
49132;DHT22;35149;51.196;6.204;2023-09-19T13:23:00;24.40;47.90
49132;DHT22;35149;51.196;6.204;2023-09-19T13:25:38;24.30;47.40
49132;DHT22;35149;51.196;6.204;2023-09-19T13:28:06;24.20;47.60
49132;DHT22;35149;51.196;6.204;2023-09-19T13:30:39;24.10;48.20
49132;DHT22;35149;51.196;6.204;2023-09-19T13:33:13;24.10;48.30
49132;DHT22;35149;51.196;6.204;2023-09-19T13:35:47;24.10;48.70
49132;DHT22;35149;51.196;6.204;2023-09-19T13:38:17;24.10;48.50
49132;DHT22;35149;51.196;6.204;2023-09-19T13:40:45;24.10;48.50
49132;DHT22;35149;51.196;6.204;2023-09-19T13:43:14;24.20;48.30
49132;DHT22;35149;51.196;6.204;2023-09-19T13:45:49;24.20;48.20
49132;DHT22;35149;51.196;6.204;2023-09-19T13:48:16;24.20;47.90
49132;DHT22;35149;51.196;6.204;2023-09-19T13:50:46;24.20;48.10
49132;DHT22;35149;51.196;6.204;2023-09-19T13:53:14;24.30;48.50
49132;DHT22;35149;51.196;6.204;2023-09-19T13:55:41;24.30;48.60
49132;DHT22;35149;51.196;6.204;2023-09-19T13:58:12;24.30;48.30
49132;DHT22;35149;51.196;6.204;2023-09-19T14:00:39;24.50;48.50
49132;DHT22;35149;51.196;6.204;2023-09-19T14:03:08;24.50;47.90
49132;DHT22;35149;51.196;6.204;2023-09-19T14:05:37;24.60;47.80
49132;DHT22;35149;51.196;6.204;2023-09-19T14:08:05;24.60;47.10
49132;DHT22;35149;51.196;6.204;2023-09-19T14:10:42;24.60;47.20
49132;DHT22;35149;51.196;6.204;2023-09-19T14:13:12;24.50;47.10
49132;DHT22;35149;51.196;6.204;2023-09-19T14:15:43;24.50;46.90
49132;DHT22;35149;51.196;6.204;2023-09-19T14:18:10;24.40;47.10
49132;DHT22;35149;51.196;6.204;2023-09-19T14:20:38;24.30;47.10
49132;DHT22;35149;51.196;6.204;2023-09-19T14:23:06;24.20;47.30
49132;DHT22;35149;51.196;6.204;2023-09-19T14:25:36;24.20;47.60
49132;DHT22;35149;51.196;6.204;2023-09-19T14:28:05;24.10;47.40
49132;DHT22;35149;51.196;6.204;2023-09-19T14:30:34;24.10;47.70
49132;DHT22;35149;51.196;6.204;2023-09-19T14:33:04;24.10;47.70
49132;DHT22;35149;51.196;6.204;2023-09-19T14:35:39;24.10;47.70
49132;DHT22;35149;51.196;6.204;2023-09-19T14:38:06;24.10;47.60
49132;DHT22;35149;51.196;6.204;2023-09-19T14:40:34;24.10;47.70
49132;DHT22;35149;51.196;6.204;2023-09-19T14:43:03;24.10;47.70
49132;DHT22;35149;51.196;6.204;2023-09-19T14:45:29;24.00;47.50
49132;DHT22;35149;51.196;6.204;2023-09-19T14:47:58;24.00;47.60
49132;DHT22;35149;51.196;6.204;2023-09-19T14:50:29;23.90;47.60
49132;DHT22;35149;51.196;6.204;2023-09-19T14:52:57;23.80;47.80
49132;DHT22;35149;51.196;6.204;2023-09-19T14:55:30;23.80;47.90
49132;DHT22;35149;51.196;6.204;2023-09-19T14:58:01;23.70;47.60
49132;DHT22;35149;51.196;6.204;2023-09-19T15:00:31;23.70;48.20
49132;DHT22;35149;51.196;6.204;2023-09-19T15:02:59;23.60;48.50
49132;DHT22;35149;51.196;6.204;2023-09-19T15:05:27;23.60;48.50
49132;DHT22;35149;51.196;6.204;2023-09-19T15:07:58;23.50;48.40
49132;DHT22;35149;51.196;6.204;2023-09-19T15:10:25;23.50;48.80
49132;DHT22;35149;51.196;6.204;2023-09-19T15:12:51;23.40;48.90
49132;DHT22;35149;51.196;6.204;2023-09-19T15:15:23;23.40;48.90
49132;DHT22;35149;51.196;6.204;2023-09-19T15:17:50;23.40;49.00
49132;DHT22;35149;51.196;6.204;2023-09-19T15:20:16;23.40;49.30
49132;DHT22;35149;51.196;6.204;2023-09-19T15:22:44;23.40;49.20
49132;DHT22;35149;51.196;6.204;2023-09-19T15:25:13;23.30;49.10
49132;DHT22;35149;51.196;6.204;2023-09-19T15:27:44;23.40;49.40
49132;DHT22;35149;51.196;6.204;2023-09-19T15:30:12;23.50;49.60
49132;DHT22;35149;51.196;6.204;2023-09-19T15:32:41;23.50;49.60
49132;DHT22;35149;51.196;6.204;2023-09-19T15:35:13;23.70;49.40
49132;DHT22;35149;51.196;6.204;2023-09-19T15:37:51;23.80;49.20
49132;DHT22;35149;51.196;6.204;2023-09-19T15:40:23;24.10;49.20
49132;DHT22;35149;51.196;6.204;2023-09-19T15:42:54;24.40;49.20
49132;DHT22;35149;51.196;6.204;2023-09-19T15:45:24;25.00;49.10
49132;DHT22;35149;51.196;6.204;2023-09-19T15:47:52;25.50;48.20
49132;DHT22;35149;51.196;6.204;2023-09-19T15:50:19;25.90;46.90
49132;DHT22;35149;51.196;6.204;2023-09-19T15:52:46;26.10;45.80
49132;DHT22;35149;51.196;6.204;2023-09-19T15:55:15;26.30;45.60
49132;DHT22;35149;51.196;6.204;2023-09-19T15:57:41;26.30;44.90
49132;DHT22;35149;51.196;6.204;2023-09-19T16:00:08;26.20;44.90
49132;DHT22;35149;51.196;6.204;2023-09-19T16:02:37;26.10;44.80
49132;DHT22;35149;51.196;6.204;2023-09-19T16:05:04;25.90;44.70
49132;DHT22;35149;51.196;6.204;2023-09-19T16:07:36;25.80;44.90
49132;DHT22;35149;51.196;6.204;2023-09-19T16:10:02;25.60;44.80
49132;DHT22;35149;51.196;6.204;2023-09-19T16:12:29;25.50;45.20
49132;DHT22;35149;51.196;6.204;2023-09-19T16:14:56;25.30;45.30
49132;DHT22;35149;51.196;6.204;2023-09-19T16:17:23;25.10;45.30
49132;DHT22;35149;51.196;6.204;2023-09-19T16:19:50;25.00;45.70
49132;DHT22;35149;51.196;6.204;2023-09-19T16:22:16;24.90;45.80
49132;DHT22;35149;51.196;6.204;2023-09-19T16:24:43;24.80;46.00